Time;durP1;ratioP1;P1;durP2;ratioP2;P2;SDS_P1;SDS_P2;PMS_P1;PMS_P2;Temp;Humidity;BMP_temperature;BMP_pressure;BME280_temperature;BME280_humidity;BME280_pressure;Samples;Min_cycle;Max_cycle;Signal;HPM_P1;HPM_P2
2021/04/05 00:02:16;;;;;;;25.85;4.07;;;;;;;3.99;76.74;97858.41;5103180;28;20024;-70
2021/04/05 00:04:42;;;;;;;18.73;4.18;;;;;;;4.03;76.68;97857.44;5104075;28;20406;-70
2021/04/05 00:07:08;;;;;;;17.92;3.15;;;;;;;3.95;76.41;97855.91;5103760;28;20031;-70
2021/04/05 00:09:33;;;;;;;30.23;7.03;;;;;;;3.91;75.82;97838.03;5104127;28;20054;-69
2021/04/05 00:11:59;;;;;;;24.00;4.68;;;;;;;3.97;75.01;97843.88;5104042;28;20050;-68
2021/04/05 00:14:26;;;;;;;21.58;4.53;;;;;;;3.95;72.06;97844.78;5104068;28;20083;-68
2021/04/05 00:16:52;;;;;;;11.38;3.20;;;;;;;3.97;70.41;97823.34;5103958;28;20031;-69
2021/04/05 00:19:17;;;;;;;13.45;3.67;;;;;;;3.87;69.58;97837.25;5103935;28;20020;-69
2021/04/05 00:21:42;;;;;;;24.08;6.93;;;;;;;3.81;70.35;97819.44;5103974;28;20019;-69
2021/04/05 00:24:09;;;;;;;22.27;4.65;;;;;;;3.78;70.92;97833.19;5103360;28;20020;-68
2021/04/05 00:26:34;;;;;;;22.42;4.15;;;;;;;3.79;71.41;97821.19;5103809;28;20020;-66
2021/04/05 00:28:59;;;;;;;12.15;2.95;;;;;;;3.88;70.20;97813.28;5085505;28;20039;-68
2021/04/05 00:31:25;;;;;;;11.95;2.67;;;;;;;3.79;70.00;97814.34;5103763;28;20020;-68
2021/04/05 00:33:50;;;;;;;23.23;3.90;;;;;;;3.87;70.26;97808.16;5103520;28;20042;-69
2021/04/05 00:36:16;;;;;;;14.02;3.10;;;;;;;3.99;68.64;97783.94;5103837;28;20062;-67
2021/04/05 00:38:41;;;;;;;22.15;3.40;;;;;;;3.86;69.53;97801.34;5103666;28;20020;-69
2021/04/05 00:41:10;;;;;;;14.13;2.63;;;;;;;3.83;69.03;97797.16;5103535;28;20024;-69
2021/04/05 00:43:37;;;;;;;19.55;2.80;;;;;;;3.75;69.04;97806.75;5103635;28;20469;-69
2021/04/05 00:46:04;;;;;;;14.35;2.00;;;;;;;3.70;69.09;97789.72;5103859;28;20028;-69
2021/04/05 00:48:31;;;;;;;14.25;3.20;;;;;;;3.74;68.69;97795.63;5103601;28;20020;-68
2021/04/05 00:51:12;;;;;;;13.75;2.50;;;;;;;3.75;68.50;97802.47;5085349;28;20024;-68
2021/04/05 00:53:40;;;;;;;12.00;2.15;;;;;;;3.68;68.00;97795.75;5103272;28;20028;-66
2021/04/05 00:56:06;;;;;;;13.82;2.70;;;;;;;3.66;68.63;97792.41;5103785;28;20039;-68
2021/04/05 00:58:33;;;;;;;8.27;2.50;;;;;;;3.62;68.76;97796.75;5103563;28;20016;-68
2021/04/05 01:01:01;;;;;;;7.47;1.67;;;;;;;3.60;68.66;97808.75;5085408;28;20031;-68
2021/04/05 01:03:28;;;;;;;15.52;1.80;;;;;;;3.64;69.07;97807.84;5103269;28;20043;-67
2021/04/05 01:05:55;;;;;;;4.32;1.13;;;;;;;3.58;67.49;97800.25;5103498;28;20028;-68
2021/04/05 01:08:22;;;;;;;4.40;1.10;;;;;;;3.44;63.48;97819.38;5103202;28;20028;-69
2021/04/05 01:10:47;;;;;;;4.53;1.27;;;;;;;3.38;64.17;97804.09;5103612;28;20016;-68
2021/04/05 01:13:14;;;;;;;2.63;0.80;;;;;;;3.33;63.08;97822.16;5105061;28;20067;-68
2021/04/05 01:15:40;;;;;;;4.53;1.00;;;;;;;3.34;62.34;97825.53;5107676;28;20024;-68
2021/04/05 01:18:06;;;;;;;9.18;1.33;;;;;;;3.27;62.26;97824.00;5107524;28;20024;-68
2021/04/05 01:20:31;;;;;;;3.63;1.00;;;;;;;3.33;62.63;97811.03;5107628;28;20475;-68
2021/04/05 01:22:58;;;;;;;2.65;1.10;;;;;;;3.31;59.00;97812.78;5107299;28;20020;-67
2021/04/05 01:25:24;;;;;;;4.47;1.00;;;;;;;3.24;59.85;97817.22;5107430;28;20020;-69
2021/04/05 01:27:52;;;;;;;5.70;1.00;;;;;;;3.17;58.59;97819.06;5107208;28;20040;-67
2021/04/05 01:30:30;;;;;;;1.88;0.90;;;;;;;3.10;56.47;97825.16;5107316;28;20047;-68
2021/04/05 01:33:03;;;;;;;4.00;1.00;;;;;;;3.05;56.11;97820.13;5106980;28;20027;-68
2021/04/05 01:35:28;;;;;;;;;;;;;;;3.02;55.03;97833.00;5107802;28;20468;-68
2021/04/05 01:37:54;;;;;;;4.28;0.70;;;;;;;2.92;54.16;97841.75;5106777;28;19915;-69
2021/04/05 01:40:20;;;;;;;6.85;0.82;;;;;;;2.68;54.52;97798.63;5107134;28;20023;-68
2021/04/05 01:42:45;;;;;;;2.38;0.77;;;;;;;2.85;53.30;97829.06;5107269;28;20024;-68
2021/04/05 01:45:11;;;;;;;2.17;1.05;;;;;;;2.84;52.87;97839.34;5106840;28;20393;-67
2021/04/05 01:47:36;;;;;;;3.22;0.93;;;;;;;2.81;53.43;97841.97;5088669;28;20043;-68
2021/04/05 01:50:04;;;;;;;2.70;0.93;;;;;;;2.81;53.20;97821.47;5107076;28;20056;-69
2021/04/05 01:52:30;;;;;;;3.70;0.93;;;;;;;2.82;52.96;97834.25;5106676;28;20027;-68
2021/04/05 01:55:03;;;;;;;3.38;0.88;;;;;;;2.83;52.82;97838.50;5106842;28;20031;-69
2021/04/05 01:57:29;;;;;;;3.65;0.90;;;;;;;2.79;50.50;97836.00;5106981;28;20034;-68
2021/04/05 01:59:54;;;;;;;5.10;1.23;;;;;;;2.79;48.63;97831.75;5106677;28;20039;-69
2021/04/05 02:02:20;;;;;;;4.18;1.00;;;;;;;2.75;47.52;97835.22;5106763;28;20047;-69
2021/04/05 02:04:45;;;;;;;5.35;0.95;;;;;;;2.70;46.11;97837.03;5106801;28;20081;-67
2021/04/05 02:07:12;;;;;;;6.93;1.10;;;;;;;2.67;47.18;97840.47;5106562;28;20027;-67
2021/04/05 02:09:39;;;;;;;1.85;0.95;;;;;;;2.63;45.95;97810.69;5106838;28;20032;-69
2021/04/05 02:12:05;;;;;;;3.67;1.00;;;;;;;2.52;44.53;97826.25;5106444;28;20027;-69
2021/04/05 02:14:30;;;;;;;2.80;0.95;;;;;;;2.42;45.33;97842.63;5106195;28;20024;-68
2021/04/05 02:16:56;;;;;;;3.42;1.02;;;;;;;2.25;45.07;97824.97;5088164;28;20042;-68
2021/04/05 02:19:21;;;;;;;2.78;1.13;;;;;;;2.19;44.66;97854.09;5087998;28;20027;-67
2021/04/05 02:21:47;;;;;;;3.13;1.90;;;;;;;2.09;45.44;97840.59;5106434;28;20137;-69
2021/04/05 02:24:14;;;;;;;5.25;1.15;;;;;;;2.06;45.94;97833.78;5105108;28;20034;-68
2021/04/05 02:26:40;;;;;;;5.97;1.15;;;;;;;1.95;44.85;97846.75;5106033;28;20034;-67
2021/04/05 02:29:06;;;;;;;3.10;0.73;;;;;;;1.87;44.32;97851.13;5106085;28;20031;-69
2021/04/05 02:31:33;;;;;;;3.38;1.02;;;;;;;1.84;43.91;97835.81;5106146;28;20488;-69
2021/04/05 02:33:59;;;;;;;4.57;1.20;;;;;;;1.70;41.24;97859.91;5105977;28;20024;-69
2021/04/05 02:36:31;;;;;;;2.17;0.68;;;;;;;1.65;40.79;97861.66;5106129;28;20020;-69
2021/04/05 02:39:01;;;;;;;3.20;1.20;;;;;;;1.55;40.22;97843.03;5105928;28;20054;-67
2021/04/05 02:41:29;;;;;;;4.10;1.10;;;;;;;1.62;41.47;97864.25;5087658;28;20020;-68
2021/04/05 02:43:56;;;;;;;1.98;0.80;;;;;;;1.51;42.66;97849.06;5105695;28;20032;-68
2021/04/05 02:46:27;;;;;;;5.80;0.93;;;;;;;1.43;43.00;97855.97;5105956;28;20028;-69
2021/04/05 02:48:55;;;;;;;6.60;1.10;;;;;;;1.38;43.34;97853.47;5105689;28;20024;-69
2021/04/05 02:51:21;;;;;;;5.55;1.38;;;;;;;1.34;43.97;97845.00;5105770;28;20027;-68
2021/04/05 02:53:50;;;;;;;5.53;1.45;;;;;;;1.28;44.54;97844.25;5105357;28;20044;-69
2021/04/05 02:56:16;;;;;;;5.40;1.05;;;;;;;1.25;44.13;97851.97;5105526;28;20040;-69
2021/04/05 02:58:44;;;;;;;1.33;0.65;;;;;;;1.15;41.30;97851.22;5105628;28;20044;-69
2021/04/05 03:01:10;;;;;;;5.75;1.13;;;;;;;1.10;40.19;97833.38;5105559;28;20270;-69
2021/04/05 03:03:40;;;;;;;7.07;1.60;;;;;;;1.04;40.04;97833.44;5105587;28;20051;-68
2021/04/05 03:06:07;;;;;;;5.53;1.98;;;;;;;1.07;40.01;97836.78;5105587;28;20031;-69
2021/04/05 03:08:33;;;;;;;4.88;1.05;;;;;;;1.06;40.52;97827.44;5105075;28;20031;-69
2021/04/05 03:10:59;;;;;;;7.43;1.45;;;;;;;0.96;40.14;97820.75;5105480;28;20024;-69
2021/04/05 03:13:25;;;;;;;7.30;1.38;;;;;;;0.97;40.71;97832.66;5105633;28;20107;-68
2021/04/05 03:15:53;;;;;;;2.92;1.15;;;;;;;0.89;41.27;97799.53;5105729;28;20016;-68
2021/04/05 03:18:21;;;;;;;5.82;0.90;;;;;;;0.88;42.15;97786.78;5105407;28;20020;-68
2021/04/05 03:20:48;;;;;;;7.72;1.35;;;;;;;0.81;41.85;97798.78;5105377;28;20058;-69
2021/04/05 03:23:15;;;;;;;3.55;1.02;;;;;;;0.84;41.77;97804.72;5104969;28;20110;-68
2021/04/05 03:25:41;;;;;;;6.20;1.25;;;;;;;0.89;42.12;97791.88;5105160;28;20493;-68
2021/04/05 03:28:06;;;;;;;5.70;0.82;;;;;;;0.84;41.60;97785.97;5105025;28;20043;-69
2021/04/05 03:30:36;;;;;;;5.55;1.58;;;;;;;0.89;41.08;97755.25;5105280;28;20020;-69
2021/04/05 03:33:09;;;;;;;6.65;2.13;;;;;;;0.83;41.54;97769.78;5105156;28;20450;-69
2021/04/05 03:35:39;;;;;;;10.05;1.70;;;;;;;0.81;41.75;97770.69;5086734;28;20027;-67
2021/04/05 03:38:05;;;;;;;6.53;1.33;;;;;;;0.78;42.45;97763.06;5104789;28;20032;-68
2021/04/05 03:40:31;;;;;;;5.15;1.83;;;;;;;0.75;42.67;97725.63;5104837;28;20039;-67
2021/04/05 03:43:34;;;;;;;10.65;1.73;;;;;;;0.64;43.34;97763.22;5104828;28;20325;-68
2021/04/05 03:46:05;;;;;;;4.65;1.45;;;;;;;0.65;44.50;97770.88;5104888;28;20027;-68
2021/04/05 03:48:46;;;;;;;7.82;1.50;;;;;;;0.70;44.46;97743.53;5104906;28;20020;-67
2021/04/05 03:51:26;;;;;;;2.60;1.17;;;;;;;0.61;43.59;97753.84;5104907;28;20020;-67
2021/04/05 03:54:17;;;;;;;3.65;0.98;;;;;;;0.54;42.84;97755.66;5104258;28;20028;-68
2021/04/05 03:56:45;;;;;;;1.48;1.33;;;;;;;0.53;42.88;97760.78;5099506;28;20048;-69
2021/04/05 03:59:32;;;;;;;9.35;1.88;;;;;;;0.48;43.47;97760.81;5104644;28;20049;-67
2021/04/05 04:02:01;;;;;;;5.05;1.98;;;;;;;0.45;43.93;97750.63;5104427;28;20097;-68
2021/04/05 04:04:49;;;;;;;6.78;1.92;;;;;;;0.42;44.23;97756.63;5104337;28;20047;-69
2021/04/05 04:09:51;;;;;;;5.25;1.77;;;;;;;0.41;45.50;97746.41;5104606;28;20048;-68
2021/04/05 04:12:19;;;;;;;5.30;1.52;;;;;;;0.43;45.91;97721.72;5104308;28;20388;-69
2021/04/05 04:14:46;;;;;;;13.25;1.83;;;;;;;0.43;45.57;97725.09;5104241;28;20027;-68
2021/04/05 04:17:12;;;;;;;3.55;1.33;;;;;;;0.41;45.81;97720.91;5104412;28;20123;-69
2021/04/05 04:19:38;;;;;;;6.32;1.25;;;;;;;0.30;45.83;97690.38;5103977;28;20092;-69
2021/04/05 04:22:06;;;;;;;5.03;1.13;;;;;;;0.23;45.44;97712.56;5104158;28;20020;-68
2021/04/05 04:24:35;;;;;;;7.13;1.60;;;;;;;0.26;45.27;97704.88;5103872;28;20024;-68
2021/04/05 04:27:01;;;;;;;6.50;1.70;;;;;;;0.16;45.48;97696.47;5103915;28;20127;-68
2021/04/05 04:29:27;;;;;;;4.97;1.02;;;;;;;0.10;45.63;97699.09;5103921;28;20088;-68
2021/04/05 04:31:53;;;;;;;5.50;1.80;;;;;;;0.13;45.74;97704.16;5104112;28;20129;-68
2021/04/05 04:34:20;;;;;;;4.45;1.42;;;;;;;0.15;45.85;97701.59;5103736;28;20027;-69
2021/04/05 04:36:47;;;;;;;3.80;1.05;;;;;;;0.07;45.97;97687.22;5104010;28;20027;-68
2021/04/05 04:39:14;;;;;;;11.57;2.00;;;;;;;0.01;46.06;97668.56;5103466;28;20049;-68
2021/04/05 04:41:47;;;;;;;16.15;1.80;;;;;;;0.06;46.19;97677.88;5103748;28;20047;-66
2021/04/05 04:44:13;;;;;;;5.72;1.63;;;;;;;0.08;45.96;97665.09;5103726;28;20024;-68
2021/04/05 04:46:40;;;;;;;7.97;1.15;;;;;;;0.24;44.84;97687.03;5104052;28;20546;-67
2021/04/05 04:49:08;;;;;;;7.10;1.88;;;;;;;0.19;44.68;97658.16;5102820;28;20084;-66
2021/04/05 04:51:35;;;;;;;6.13;1.30;;;;;;;0.24;44.51;97678.53;5103862;28;20044;-67
2021/04/05 04:54:03;;;;;;;9.18;1.73;;;;;;;0.26;44.47;97675.97;5103245;28;20024;-67
2021/04/05 04:56:30;;;;;;;8.93;3.40;;;;;;;0.27;44.38;97683.63;5103915;28;20044;-68
2021/04/05 04:59:05;;;;;;;7.63;1.50;;;;;;;0.28;44.75;97684.44;5103654;28;20357;-71
2021/04/05 05:01:31;;;;;;;8.43;2.22;;;;;;;0.31;45.20;97674.19;5103799;28;20016;-70
2021/04/05 05:04:01;;;;;;;5.07;1.05;;;;;;;0.33;44.71;97667.38;5103598;28;20099;-70
2021/04/05 05:06:28;;;;;;;4.90;1.40;;;;;;;0.33;44.62;97657.16;5104031;28;20054;-67
2021/04/05 05:08:53;;;;;;;7.18;2.33;;;;;;;0.37;44.93;97653.72;5103432;28;20119;-67
2021/04/05 05:11:19;;;;;;;8.93;1.55;;;;;;;0.49;45.37;97660.41;5103752;28;20008;-68
2021/04/05 05:13:45;;;;;;;6.35;1.52;;;;;;;0.57;44.84;97663.72;5103405;28;20031;-66
2021/04/05 05:16:11;;;;;;;6.93;1.20;;;;;;;0.58;44.64;97659.44;5103123;28;20032;-69
2021/04/05 05:18:37;;;;;;;6.47;1.30;;;;;;;0.55;44.34;97651.81;5102686;28;20072;-69
2021/04/05 05:21:07;;;;;;;3.80;1.05;;;;;;;0.55;43.87;97646.69;5102465;28;20027;-68
2021/04/05 05:23:36;;;;;;;5.53;1.13;;;;;;;0.56;43.79;97640.75;5102719;28;20085;-68
2021/04/05 05:26:03;;;;;;;2.05;1.10;;;;;;;0.53;43.46;97640.78;5103377;28;20061;-71
2021/04/05 05:28:31;;;;;;;9.85;1.42;;;;;;;0.46;42.99;97642.56;5103328;28;20051;-67
2021/04/05 05:30:57;;;;;;;3.05;1.40;;;;;;;0.48;43.08;97631.47;5103380;28;20028;-68
2021/04/05 05:33:22;;;;;;;6.93;0.95;;;;;;;0.58;42.23;97634.75;5084941;28;20020;-67
2021/04/05 05:35:51;;;;;;;6.32;1.10;;;;;;;0.49;42.71;97642.53;5103190;28;20046;-68
2021/04/05 05:38:17;;;;;;;3.13;0.90;;;;;;;0.44;43.04;97634.06;5102802;28;20016;-67
2021/04/05 05:40:45;;;;;;;4.60;1.27;;;;;;;0.52;43.27;97636.53;5103185;28;20484;-67
2021/04/05 05:43:30;;;;;;;7.93;1.33;;;;;;;0.63;43.20;97638.94;5103260;28;20159;-67
2021/04/05 05:45:55;;;;;;;6.80;0.95;;;;;;;0.63;42.76;97621.06;5103105;28;20024;-67
2021/04/05 05:48:23;;;;;;;1.77;1.02;;;;;;;0.64;43.27;97638.09;5103459;28;20028;-67
2021/04/05 05:51:11;;;;;;;8.10;2.90;;;;;;;1.05;43.55;97617.94;5103284;28;20021;-68
2021/04/05 05:53:36;;;;;;;3.63;1.10;;;;;;;1.81;42.96;97619.25;5102508;28;20024;-67
2021/04/05 05:56:22;;;;;;;1.20;0.68;;;;;;;2.84;39.40;97621.53;5103171;28;20020;-67
2021/04/05 05:59:01;;;;;;;5.63;1.00;;;;;;;3.63;37.83;97621.41;5103258;28;20031;-66
2021/04/05 06:01:56;;;;;;;4.18;0.88;;;;;;;4.03;35.33;97621.22;5106150;28;20039;-68
2021/04/05 06:04:43;;;;;;;2.33;0.90;;;;;;;4.30;34.63;97621.34;5090049;28;20047;-68
2021/04/05 06:07:30;;;;;;;5.30;2.15;;;;;;;4.18;34.66;97614.84;5106711;28;20023;-67
2021/04/05 06:10:11;;;;;;;5.75;1.17;;;;;;;4.17;36.65;97618.31;5106910;28;20015;-68
2021/04/05 06:12:44;;;;;;;3.88;1.30;;;;;;;4.12;35.43;97631.25;5106713;28;20468;-68
2021/04/05 06:15:19;;;;;;;2.58;1.42;;;;;;;3.72;35.12;97623.72;5106571;28;20020;-69
2021/04/05 06:18:22;;;;;;;2.53;1.10;;;;;;;3.28;35.57;97641.03;5106607;28;20054;-69
2021/04/05 06:21:11;;;;;;;5.30;1.45;;;;;;;2.81;36.42;97626.72;5106362;28;20546;-68
2021/04/05 06:23:50;;;;;;;4.10;1.40;;;;;;;2.53;36.43;97635.81;5105916;28;20034;-67
2021/04/05 06:26:34;;;;;;;4.70;0.90;;;;;;;2.61;37.29;97627.97;5106597;28;20024;-69
2021/04/05 06:29:14;;;;;;;2.13;0.77;;;;;;;2.65;36.83;97628.75;5105941;28;20032;-68
2021/04/05 06:32:08;;;;;;;2.72;0.90;;;;;;;2.54;36.07;97634.94;5106457;28;20031;-68
2021/04/05 06:34:34;;;;;;;3.92;0.85;;;;;;;2.18;36.51;97624.56;5101104;28;20516;-68
2021/04/05 06:37:32;;;;;;;2.75;1.27;;;;;;;2.66;37.88;97628.72;5106207;28;20079;-68
2021/04/05 06:40:04;;;;;;;6.45;1.00;;;;;;;3.90;37.10;97615.59;5105924;28;20052;-67
2021/04/05 06:42:59;;;;;;;2.95;0.77;;;;;;;4.41;35.15;97621.09;5106292;28;20077;-68
2021/04/05 06:45:37;;;;;;;2.53;0.85;;;;;;;4.32;34.80;97612.75;5105975;28;20043;-68
2021/04/05 06:48:40;;;;;;;6.50;1.15;;;;;;;4.18;34.20;97608.00;5106163;28;20032;-69
2021/04/05 06:51:31;;;;;;;2.72;1.23;;;;;;;3.92;33.95;97606.97;5087597;28;20039;-70
2021/04/05 06:54:36;;;;;;;5.50;1.30;;;;;;;3.54;34.07;97629.31;5105454;28;20020;-69
2021/04/05 06:57:01;;;;;;;1.65;0.77;;;;;;;3.73;34.16;97629.72;5087314;28;20020;-70
2021/04/05 06:59:40;;;;;;;2.33;0.80;;;;;;;3.87;34.30;97623.34;5105805;28;20099;-68
2021/04/05 07:02:54;;;;;;;5.90;1.10;;;;;;;3.66;34.18;97626.44;5087298;28;20028;-75
2021/04/05 07:06:01;;;;;;;6.75;1.15;;;;;;;3.20;34.58;97626.69;5003136;28;20034;-73
2021/04/05 07:08:47;;;;;;;5.75;1.98;;;;;;;2.88;35.94;97632.53;5003084;28;20518;-72
2021/04/05 07:11:43;;;;;;;2.03;0.80;;;;;;;2.60;36.79;97629.69;5002758;28;20057;-72
2021/04/05 07:14:26;;;;;;;5.80;1.10;;;;;;;2.64;38.03;97635.59;4986532;28;20039;-73
2021/04/05 07:17:12;;;;;;;1.88;1.33;;;;;;;2.59;38.04;97642.53;5003340;28;20137;-72
2021/04/05 07:20:00;;;;;;;2.85;0.80;;;;;;;2.39;38.83;97641.22;4986481;28;20045;-74
2021/04/05 07:22:48;;;;;;;2.63;1.08;;;;;;;2.36;39.15;97648.97;5002593;28;20041;-72
2021/04/05 07:26:02;;;;;;;5.65;1.10;;;;;;;2.48;39.49;97641.03;5002901;28;20034;-74
2021/04/05 07:28:54;;;;;;;2.75;0.70;;;;;;;2.50;39.06;97629.91;4994306;28;20118;-73
2021/04/05 07:31:39;;;;;;;3.35;1.05;;;;;;;2.58;39.76;97630.59;5002927;28;20404;-73
2021/04/05 07:34:29;;;;;;;2.10;0.75;;;;;;;3.53;39.20;97618.22;5002879;28;20038;-72
2021/04/05 07:37:03;;;;;;;2.10;0.90;;;;;;;4.81;38.91;97619.91;5002827;28;20037;-69
2021/04/05 07:39:42;;;;;;;3.63;0.95;;;;;;;5.67;36.16;97609.50;5047966;28;20064;-69
2021/04/05 07:42:50;;;;;;;3.28;1.25;;;;;;;6.04;34.12;97611.69;5066629;28;20039;-69
2021/04/05 07:45:21;;;;;;;8.73;1.20;;;;;;;6.17;34.85;97605.28;5060526;28;20104;-68
2021/04/05 07:48:08;;;;;;;2.70;0.90;;;;;;;6.57;33.75;97604.69;5084459;28;20032;-69
2021/04/05 07:50:40;;;;;;;3.97;1.13;;;;;;;6.51;32.63;97604.94;5084392;28;20029;-65
2021/04/05 07:53:31;;;;;;;;;;;;;;;6.49;33.72;97611.88;5084613;28;20021;-65
2021/04/05 07:56:02;;;;;;;7.35;0.90;;;;;;;7.12;34.11;97600.91;5081063;28;19944;-64
2021/04/05 07:58:39;;;;;;;4.95;1.00;;;;;;;7.50;32.94;97620.91;5084254;28;20020;-68
2021/04/05 08:01:26;;;;;;;0.82;0.47;;;;;;;7.44;29.86;97603.09;5084458;28;20474;-67
2021/04/05 08:04:04;;;;;;;4.68;1.40;;;;;;;7.16;31.21;97623.09;5084145;28;20024;-64
2021/04/05 08:06:41;;;;;;;3.53;0.82;;;;;;;7.43;30.76;97628.06;5084415;28;20039;-66
2021/04/05 08:09:16;;;;;;;3.22;0.82;;;;;;;8.16;31.03;97625.97;5083805;28;20044;-66
2021/04/05 08:11:59;;;;;;;2.28;0.80;;;;;;;8.62;29.48;97632.59;5084131;28;20024;-65
2021/04/05 08:14:47;;;;;;;3.10;1.10;;;;;;;8.08;29.17;97636.63;5083783;28;20026;-65
2021/04/05 08:17:54;;;;;;;1.77;0.80;;;;;;;7.61;30.28;97630.81;5084007;28;20097;-66
2021/04/05 08:20:23;;;;;;;8.10;1.10;;;;;;;7.91;30.04;97627.84;5041113;28;20040;-66
2021/04/05 08:23:19;;;;;;;4.35;1.30;;;;;;;8.56;30.34;97636.31;5040228;28;20026;-64
2021/04/05 08:26:00;;;;;;;2.55;1.08;;;;;;;8.53;29.30;97636.41;5041214;28;20030;-65
2021/04/05 08:28:29;;;;;;;6.30;0.90;;;;;;;8.51;30.36;97627.88;5040892;28;20132;-66
2021/04/05 08:31:10;;;;;;;5.35;1.05;;;;;;;8.87;30.62;97634.91;5041069;28;20029;-66
2021/04/05 08:33:49;;;;;;;1.77;0.98;;;;;;;9.39;28.99;97628.16;5041200;28;20025;-65
2021/04/05 08:36:23;;;;;;;1.55;0.60;;;;;;;9.54;28.00;97633.50;5041185;28;20025;-69
2021/04/05 08:39:33;;;;;;;1.10;0.60;;;;;;;9.39;27.08;97638.53;5040816;28;20034;-67
2021/04/05 08:42:18;;;;;;;2.88;0.60;;;;;;;9.17;27.65;97631.78;5034275;28;20053;-68
2021/04/05 08:45:00;;;;;;;2.65;0.70;;;;;;;9.48;28.14;97639.84;5040951;28;20061;-67
2021/04/05 08:47:28;;;;;;;4.28;1.10;;;;;;;10.13;27.46;97633.19;5040814;28;20025;-68
2021/04/05 08:49:59;;;;;;;1.77;0.90;;;;;;;10.52;27.25;97645.94;5040990;28;20029;-67
2021/04/05 08:52:31;;;;;;;3.35;1.55;;;;;;;11.06;25.42;97633.56;5040731;28;20021;-67
2021/04/05 08:55:00;;;;;;;1.50;0.90;;;;;;;11.38;25.70;97637.00;5040483;28;20089;-67
2021/04/05 08:57:46;;;;;;;4.72;0.82;;;;;;;11.75;24.59;97646.19;5069845;28;20032;-66
2021/04/05 09:00:13;;;;;;;4.47;0.80;;;;;;;11.96;24.26;97641.53;5083552;28;20641;-66
2021/04/05 09:02:49;;;;;;;5.22;0.85;;;;;;;10.99;23.41;97641.69;5082453;28;20036;-66
2021/04/05 09:05:21;;;;;;;6.55;1.42;;;;;;;9.75;24.46;97636.81;5083404;28;20051;-66
2021/04/05 09:08:07;;;;;;;2.72;0.80;;;;;;;8.55;25.15;97663.06;5083266;28;20033;-65
2021/04/05 09:10:41;;;;;;;4.93;1.02;;;;;;;8.21;26.56;97660.16;5065108;28;20040;-68
2021/04/05 09:13:11;;;;;;;2.08;0.80;;;;;;;9.20;26.60;97648.09;5083258;28;20025;-66
2021/04/05 09:16:21;;;;;;;2.20;0.77;;;;;;;9.66;25.47;97651.03;5083060;28;20066;-67
2021/04/05 09:19:08;;;;;;;3.60;1.05;;;;;;;10.25;24.74;97659.41;5066843;28;20036;-66
2021/04/05 09:22:06;;;;;;;4.18;0.70;;;;;;;9.96;24.52;97669.50;5083225;28;20103;-68
2021/04/05 09:24:49;;;;;;;5.35;1.23;;;;;;;9.46;25.55;97659.78;5082518;28;20419;-67
2021/04/05 09:27:47;;;;;;;2.47;0.82;;;;;;;10.51;25.76;97665.03;5086411;28;20055;-66
2021/04/05 09:30:40;;;;;;;3.15;1.33;;;;;;;11.74;24.32;97660.13;5103434;28;20051;-68
2021/04/05 09:33:24;;;;;;;3.40;0.80;;;;;;;11.64;23.27;97665.84;5103352;28;20028;-67
2021/04/05 09:36:23;;;;;;;5.38;0.75;;;;;;;11.80;22.15;97664.97;5107674;28;20027;-68
2021/04/05 09:38:56;;;;;;;6.18;0.82;;;;;;;12.03;22.59;97662.78;5107118;28;20027;-69
2021/04/05 09:41:44;;;;;;;2.85;0.70;;;;;;;12.81;22.70;97665.97;5107333;28;20042;-68
2021/04/05 09:44:24;;;;;;;4.43;0.68;;;;;;;12.72;21.61;97674.38;5107223;28;20035;-68
2021/04/05 09:47:23;;;;;;;4.05;0.88;;;;;;;11.70;23.06;97679.41;5107313;28;20053;-68
2021/04/05 09:50:11;;;;;;;0.80;0.47;;;;;;;12.34;23.49;97673.16;5106999;28;20073;-69
2021/04/05 09:53:10;;;;;;;3.55;0.90;;;;;;;12.99;21.90;97671.81;5106892;28;20406;-68
2021/04/05 09:55:40;;;;;;;3.55;0.80;;;;;;;13.07;21.45;97683.53;5106137;28;20024;-69
2021/04/05 09:58:13;;;;;;;3.05;0.80;;;;;;;13.53;21.33;97685.00;5106999;28;20031;-68
2021/04/05 10:00:41;;;;;;;5.18;0.80;;;;;;;14.10;21.47;97687.44;5105821;28;20025;-68
2021/04/05 10:03:16;;;;;;;4.50;1.13;;;;;;;13.40;20.82;97697.97;5106107;28;20028;-68
2021/04/05 10:05:44;;;;;;;3.70;1.20;;;;;;;12.88;21.38;97693.34;5105618;28;20503;-68
2021/04/05 10:08:27;;;;;;;4.15;0.90;;;;;;;12.99;21.73;97697.88;5087292;28;20031;-69
2021/04/05 10:10:55;;;;;;;1.05;0.60;;;;;;;12.16;21.04;97704.53;5105880;28;20027;-69
2021/04/05 10:13:23;;;;;;;7.45;1.00;;;;;;;11.39;22.68;97703.59;5087373;28;20016;-67
2021/04/05 10:15:53;;;;;;;2.40;0.82;;;;;;;12.07;23.15;97708.50;5105422;28;20052;-67
2021/04/05 10:18:19;;;;;;;5.30;1.10;;;;;;;12.97;21.50;97704.13;5105683;28;20118;-66
2021/04/05 10:20:50;;;;;;;1.58;0.55;;;;;;;13.51;21.32;97692.09;5105452;28;20020;-68
2021/04/05 10:23:21;;;;;;;2.75;0.80;;;;;;;13.97;19.90;97711.75;5087275;28;20050;-67
2021/04/05 10:25:53;;;;;;;1.42;0.75;;;;;;;14.23;20.29;97710.94;5105356;28;20016;-68
2021/04/05 10:28:20;;;;;;;3.35;0.90;;;;;;;12.63;19.13;97700.06;5105042;28;20070;-66
2021/04/05 10:30:54;;;;;;;3.58;0.77;;;;;;;11.53;21.57;97709.78;5105138;28;20024;-66
2021/04/05 10:33:25;;;;;;;3.10;0.60;;;;;;;11.74;21.08;97714.72;5105405;28;20028;-67
2021/04/05 10:35:55;;;;;;;4.13;1.13;;;;;;;12.20;21.70;97708.66;5105008;28;20024;-66
2021/04/05 10:38:22;;;;;;;5.88;0.95;;;;;;;13.06;21.32;97711.34;5086437;28;20039;-66
2021/04/05 10:40:50;;;;;;;4.03;0.70;;;;;;;13.51;21.34;97694.72;5086820;28;20020;-67
2021/04/05 10:43:41;;;;;;;5.65;1.05;;;;;;;13.71;20.60;97700.38;5105098;28;20048;-67
2021/04/05 10:46:25;;;;;;;4.22;0.60;;;;;;;13.85;19.74;97692.50;5104152;28;20031;-67
2021/04/05 10:48:58;;;;;;;4.13;1.02;;;;;;;13.96;20.15;97709.22;5104868;28;20024;-68
2021/04/05 10:51:29;;;;;;;5.47;0.88;;;;;;;14.27;19.27;97708.94;5105081;28;20578;-67
2021/04/05 10:54:09;;;;;;;3.88;0.68;;;;;;;14.38;19.04;97707.28;5105485;28;20034;-67
2021/04/05 10:56:39;;;;;;;3.35;0.88;;;;;;;14.33;18.72;97711.97;5105864;28;20024;-67
2021/04/05 10:59:13;;;;;;;4.68;0.73;;;;;;;14.38;19.33;97719.50;5105669;28;20024;-69
2021/04/05 11:01:47;;;;;;;5.25;0.93;;;;;;;14.51;18.81;97716.88;5105908;28;20028;-68
2021/04/05 11:04:14;;;;;;;2.33;0.75;;;;;;;14.71;18.86;97718.13;5105468;28;20024;-68
2021/04/05 11:06:41;;;;;;;3.75;0.80;;;;;;;14.89;18.73;97724.84;5105537;28;20464;-69
2021/04/05 11:09:09;;;;;;;2.17;0.90;;;;;;;14.98;17.97;97724.19;5105265;28;20055;-69
2021/04/05 11:11:38;;;;;;;1.88;1.00;;;;;;;14.52;17.77;97712.50;5105780;28;20085;-68
2021/04/05 11:14:09;;;;;;;2.35;0.80;;;;;;;14.41;18.01;97721.91;5105282;28;20024;-67
2021/04/05 11:16:35;;;;;;;4.70;1.23;;;;;;;14.40;18.29;97732.44;5105316;28;20370;-68
2021/04/05 11:19:07;;;;;;;3.97;1.00;;;;;;;14.40;18.43;97725.47;5087302;28;20027;-68
2021/04/05 11:21:40;;;;;;;1.92;0.90;;;;;;;13.96;18.35;97715.25;5105628;28;20016;-69
2021/04/05 11:24:08;;;;;;;5.70;1.20;;;;;;;13.56;18.64;97715.25;5104906;28;20055;-68
2021/04/05 11:26:35;;;;;;;3.10;0.68;;;;;;;13.33;19.21;97720.97;5105030;28;20028;-70
2021/04/05 11:29:05;;;;;;;5.15;1.10;;;;;;;12.79;19.17;97730.34;5086765;28;20517;-67
2021/04/05 11:31:36;;;;;;;3.35;0.73;;;;;;;11.14;19.92;97741.31;5105146;28;20019;-68
2021/04/05 11:34:03;;;;;;;4.60;0.80;;;;;;;9.62;21.66;97749.69;5104865;28;20435;-67
2021/04/05 11:36:48;;;;;;;2.40;0.90;;;;;;;8.59;23.16;97739.63;5105222;28;20016;-67
2021/04/05 11:39:17;;;;;;;1.27;0.70;;;;;;;7.91;24.56;97757.00;5086415;28;20062;-68
2021/04/05 11:41:46;;;;;;;4.38;1.20;;;;;;;7.38;25.22;97758.22;5104100;28;20031;-68
2021/04/05 11:44:17;;;;;;;2.65;0.70;;;;;;;7.02;25.84;97764.69;5103903;28;20433;-66
2021/04/05 11:46:46;;;;;;;2.50;0.70;;;;;;;6.74;26.24;97773.41;5086587;28;20020;-68
2021/04/05 11:49:14;;;;;;;1.85;0.77;;;;;;;6.54;26.32;97770.66;5104795;28;20790;-66
2021/04/05 11:51:46;;;;;;;2.78;0.68;;;;;;;6.40;27.18;97778.00;5086375;28;20031;-67
2021/04/05 11:54:40;;;;;;;3.95;1.10;;;;;;;6.42;27.50;97781.38;5085765;28;20132;-68
2021/04/05 11:57:10;;;;;;;1.63;0.60;;;;;;;6.31;27.27;97759.38;5104804;28;20020;-69
2021/04/05 11:59:44;;;;;;;2.28;1.08;;;;;;;6.18;27.76;97797.56;5104601;28;20020;-67
2021/04/05 12:02:21;;;;;;;2.58;0.82;;;;;;;6.11;28.27;97801.25;5104680;28;20058;-68
2021/04/05 12:05:10;;;;;;;6.28;1.05;;;;;;;6.08;28.02;97793.63;5104168;28;20065;-66
2021/04/05 12:07:44;;;;;;;2.03;0.70;;;;;;;6.03;28.31;97788.59;5104399;28;20016;-66
2021/04/05 12:10:18;;;;;;;1.83;0.75;;;;;;;5.92;28.95;97809.56;5104363;28;20028;-68
2021/04/05 12:12:52;;;;;;;2.58;1.02;;;;;;;6.01;29.88;97786.94;5104325;28;20023;-67
2021/04/05 12:15:20;;;;;;;1.98;1.27;;;;;;;5.98;30.58;97787.03;5104302;28;20066;-68